Time;durP1;ratioP1;P1;durP2;ratioP2;P2;SDS_P1;SDS_P2;PMS_P1;PMS_P2;Temp;Humidity;BMP_temperature;BMP_pressure;BME280_temperature;BME280_humidity;BME280_pressure;Samples;Min_cycle;Max_cycle;Signal;HPM_P1;HPM_P2
2023/04/20 00:01:07;;;;;;;0.70;0.60;;;8.60;99.90;;;;;;4952761;28;20254;-64
2023/04/20 00:03:36;;;;;;;5.90;1.27;;;8.60;99.90;;;;;;4952262;28;20322;-63
2023/04/20 00:06:04;;;;;;;1.88;0.85;;;8.60;99.90;;;;;;4955978;28;20229;-63
2023/04/20 00:08:32;;;;;;;0.73;0.60;;;8.50;99.90;;;;;;4947513;28;20285;-63
2023/04/20 00:11:00;;;;;;;0.80;0.60;;;8.30;99.90;;;;;;4958768;28;20281;-63
2023/04/20 00:13:28;;;;;;;0.70;0.68;;;8.10;99.90;;;;;;4961753;28;20675;-62
2023/04/20 00:15:57;;;;;;;0.50;0.40;;;7.90;99.90;;;;;;4953489;28;20222;-63
2023/04/20 00:18:25;;;;;;;1.10;1.00;;;8.00;99.90;;;;;;4951961;28;20945;-62
2023/04/20 00:20:53;;;;;;;0.60;0.52;;;8.00;99.90;;;;;;4945842;28;20238;-62
2023/04/20 00:23:21;;;;;;;0.68;0.65;;;7.90;99.90;;;;;;4957192;28;20206;-62
2023/04/20 00:25:50;;;;;;;0.80;0.50;;;7.90;99.90;;;;;;4958018;28;20305;-62
2023/04/20 00:28:18;;;;;;;0.60;0.40;;;8.00;99.90;;;;;;4946558;28;20241;-62
2023/04/20 00:30:46;;;;;;;0.70;0.60;;;8.00;99.90;;;;;;4948537;28;20311;-62
2023/04/20 00:33:15;;;;;;;1.10;0.90;;;7.90;99.90;;;;;;4952397;28;20234;-62
2023/04/20 00:35:43;;;;;;;0.70;0.57;;;7.90;99.90;;;;;;4949282;28;20234;-62
2023/04/20 00:38:11;;;;;;;0.60;0.50;;;7.90;99.90;;;;;;4950324;28;20206;-62
2023/04/20 00:40:39;;;;;;;1.23;1.10;;;8.00;99.90;;;;;;4952254;28;20233;-63
2023/04/20 00:43:10;;;;;;;2.45;0.55;;;7.90;99.90;;;;;;4929874;29;20222;-62
2023/04/20 00:45:38;;;;;;;0.70;0.60;;;8.00;99.90;;;;;;4939302;29;20711;-62
2023/04/20 00:48:07;;;;;;;0.70;0.60;;;8.00;99.90;;;;;;4934595;29;20229;-63
2023/04/20 00:50:38;;;;;;;0.63;0.50;;;8.00;99.90;;;;;;4930158;28;20239;-62
2023/04/20 00:53:07;;;;;;;0.80;0.80;;;8.10;99.90;;;;;;4933324;29;20203;-62
2023/04/20 00:55:37;;;;;;;0.93;0.60;;;8.20;99.90;;;;;;4932100;29;20716;-62
2023/04/20 00:58:06;;;;;;;1.33;0.95;;;8.20;99.90;;;;;;4932333;29;20287;-62
2023/04/20 01:00:34;;;;;;;1.08;0.93;;;8.30;99.90;;;;;;4932912;29;20239;-63
2023/04/20 01:03:02;;;;;;;0.80;0.60;;;8.30;99.90;;;;;;4922214;29;20293;-62
2023/04/20 01:05:30;;;;;;;2.25;0.98;;;8.40;99.90;;;;;;4930433;29;20233;-62
2023/04/20 01:07:59;;;;;;;0.80;0.68;;;8.50;99.90;;;;;;4926520;28;20214;-62
2023/04/20 01:10:27;;;;;;;0.73;0.73;;;8.50;99.90;;;;;;4933373;29;20215;-63
2023/04/20 01:12:55;;;;;;;1.00;0.90;;;8.50;99.90;;;;;;4933348;29;20254;-62
2023/04/20 01:15:23;;;;;;;0.60;0.60;;;8.30;99.90;;;;;;4933627;29;20217;-62
2023/04/20 01:17:52;;;;;;;1.02;0.90;;;8.20;99.90;;;;;;4933150;29;20314;-63
2023/04/20 01:20:22;;;;;;;0.82;0.70;;;7.90;99.90;;;;;;4933552;29;20208;-62
2023/04/20 01:22:53;;;;;;;0.88;0.75;;;7.70;99.90;;;;;;4932844;29;20208;-63
2023/04/20 01:25:22;;;;;;;0.93;0.70;;;7.60;99.90;;;;;;4933681;28;20210;-62
2023/04/20 01:27:50;;;;;;;0.60;0.47;;;7.40;99.90;;;;;;4932927;29;20694;-62
2023/04/20 01:30:17;;;;;;;0.80;0.80;;;7.40;99.90;;;;;;4933554;29;20231;-62
2023/04/20 01:32:46;;;;;;;0.73;0.68;;;7.50;99.90;;;;;;4933012;29;20296;-62
2023/04/20 01:35:14;;;;;;;1.27;1.08;;;7.60;99.90;;;;;;4933224;29;20216;-62
2023/04/20 01:37:42;;;;;;;1.23;0.77;;;7.50;99.90;;;;;;4932284;29;20238;-62
2023/04/20 01:40:14;;;;;;;2.60;1.13;;;7.50;99.90;;;;;;4933355;29;20291;-62
2023/04/20 01:42:42;;;;;;;1.60;0.75;;;7.60;99.90;;;;;;4950713;28;20587;-62
2023/04/20 01:45:10;;;;;;;0.80;0.70;;;7.70;99.90;;;;;;4952601;28;20215;-62
2023/04/20 01:47:38;;;;;;;0.70;0.50;;;7.90;99.90;;;;;;4951896;28;20266;-62
2023/04/20 01:50:06;;;;;;;0.70;0.60;;;8.00;99.90;;;;;;4952525;28;20210;-62
2023/04/20 01:52:34;;;;;;;1.17;0.80;;;8.20;99.90;;;;;;4952098;28;20302;-62
2023/04/20 01:55:02;;;;;;;1.00;0.77;;;8.30;99.90;;;;;;4952455;28;20199;-61
2023/04/20 01:57:32;;;;;;;1.20;1.10;;;8.40;99.90;;;;;;4952664;28;20210;-62
2023/04/20 01:59:59;;;;;;;1.17;0.70;;;8.40;99.90;;;;;;4956494;28;20212;-62
2023/04/20 02:02:27;;;;;;;0.70;0.60;;;8.30;99.90;;;;;;4956081;28;20258;-62
2023/04/20 02:04:55;;;;;;;0.93;0.93;;;8.20;99.90;;;;;;4951912;28;20203;-62
2023/04/20 02:07:23;;;;;;;1.25;0.73;;;7.90;99.90;;;;;;4951937;28;20223;-63
2023/04/20 02:09:51;;;;;;;0.70;0.60;;;7.80;99.90;;;;;;4951953;28;20297;-62
2023/04/20 02:12:19;;;;;;;0.65;0.50;;;7.70;99.90;;;;;;4952281;28;20313;-62
2023/04/20 02:14:48;;;;;;;0.68;0.60;;;7.60;99.90;;;;;;4953844;28;20273;-61
2023/04/20 02:17:16;;;;;;;0.90;0.60;;;7.60;99.90;;;;;;4955302;28;20747;-63
2023/04/20 02:19:45;;;;;;;0.80;0.60;;;7.40;99.90;;;;;;4942757;28;20210;-61
2023/04/20 02:22:13;;;;;;;1.35;1.25;;;7.40;99.90;;;;;;4955555;28;20257;-61
2023/04/20 02:24:42;;;;;;;1.05;0.60;;;7.10;99.90;;;;;;4955384;28;20742;-61
2023/04/20 02:27:10;;;;;;;1.00;0.80;;;6.70;99.90;;;;;;4955598;28;20234;-62
2023/04/20 02:29:38;;;;;;;0.98;0.88;;;6.50;99.90;;;;;;4954936;28;20290;-61
2023/04/20 02:32:07;;;;;;;0.70;0.55;;;6.50;99.90;;;;;;4955135;28;20313;-61
2023/04/20 02:34:35;;;;;;;1.15;0.80;;;6.50;99.90;;;;;;4955198;28;20297;-61
2023/04/20 02:37:03;;;;;;;0.70;0.70;;;6.50;99.90;;;;;;4951892;28;20228;-62
2023/04/20 02:39:31;;;;;;;1.25;0.80;;;6.50;99.90;;;;;;4949522;28;20289;-62
2023/04/20 02:41:59;;;;;;;1.05;0.80;;;6.50;99.90;;;;;;4953957;28;20776;-64
2023/04/20 02:44:27;;;;;;;1.20;0.70;;;6.70;99.90;;;;;;4960937;28;20235;-64
2023/04/20 02:46:54;;;;;;;0.70;0.52;;;6.80;99.90;;;;;;4958649;28;20222;-64
2023/04/20 02:49:24;;;;;;;1.30;0.80;;;6.90;99.90;;;;;;4959407;28;20210;-62
2023/04/20 02:51:52;;;;;;;1.63;0.88;;;6.80;99.90;;;;;;4951699;28;20236;-62
2023/04/20 02:54:19;;;;;;;1.08;0.70;;;6.80;99.90;;;;;;4955541;28;20206;-62
2023/04/20 02:56:47;;;;;;;1.40;1.20;;;6.80;99.90;;;;;;4960187;28;20285;-62
2023/04/20 02:59:15;;;;;;;0.70;0.60;;;6.70;99.90;;;;;;4959127;28;20306;-62
2023/04/20 03:01:44;;;;;;;0.77;0.73;;;6.60;99.90;;;;;;4949190;28;20245;-62
2023/04/20 03:04:12;;;;;;;1.10;1.00;;;6.60;99.90;;;;;;4951719;28;20219;-62
2023/04/20 03:06:41;;;;;;;0.70;0.70;;;6.60;99.90;;;;;;4955088;28;20255;-61
2023/04/20 03:09:09;;;;;;;0.85;0.70;;;6.60;99.90;;;;;;4955479;28;20288;-61
2023/04/20 03:11:37;;;;;;;1.70;1.60;;;6.50;99.90;;;;;;4962607;28;20313;-61
2023/04/20 03:14:05;;;;;;;0.95;0.95;;;6.50;99.90;;;;;;4953016;28;20250;-61
2023/04/20 03:16:33;;;;;;;0.80;0.60;;;6.50;99.90;;;;;;4958772;28;20692;-62
2023/04/20 03:19:01;;;;;;;1.15;0.98;;;6.50;99.90;;;;;;4954704;28;20650;-62
2023/04/20 03:21:30;;;;;;;1.40;1.30;;;6.50;99.90;;;;;;4951210;28;20651;-62
2023/04/20 03:23:59;;;;;;;1.00;0.70;;;6.50;99.90;;;;;;4957791;28;20237;-62
2023/04/20 03:26:27;;;;;;;1.35;1.23;;;6.50;99.90;;;;;;4954394;28;20292;-62
2023/04/20 03:28:55;;;;;;;1.30;1.10;;;6.50;99.90;;;;;;4957206;28;20228;-62
2023/04/20 03:31:23;;;;;;;0.95;0.85;;;6.40;99.90;;;;;;4954676;28;20305;-62
2023/04/20 03:33:51;;;;;;;1.60;0.95;;;6.40;99.90;;;;;;4954740;28;20289;-63
2023/04/20 03:36:19;;;;;;;1.73;1.02;;;6.40;99.90;;;;;;4957226;28;20229;-63
2023/04/20 03:38:46;;;;;;;1.35;1.00;;;6.30;99.90;;;;;;4955818;28;20292;-63
2023/04/20 03:41:16;;;;;;;1.40;1.05;;;6.30;99.90;;;;;;4953299;28;20676;-62
2023/04/20 03:43:44;;;;;;;1.17;1.08;;;6.30;99.90;;;;;;4946007;28;20214;-62
2023/04/20 03:46:11;;;;;;;1.15;0.88;;;6.40;99.90;;;;;;4954545;28;20214;-62
2023/04/20 03:48:39;;;;;;;0.80;0.80;;;6.40;99.90;;;;;;4951940;28;20724;-63
2023/04/20 03:51:07;;;;;;;0.73;0.73;;;6.40;99.90;;;;;;4959139;28;20730;-62
2023/04/20 03:53:35;;;;;;;0.93;0.85;;;6.50;99.90;;;;;;4953330;28;20207;-62
2023/04/20 03:56:06;;;;;;;1.75;1.63;;;6.50;99.90;;;;;;4953707;28;20220;-62
2023/04/20 03:58:35;;;;;;;1.52;0.93;;;6.50;99.90;;;;;;4954162;28;20988;-63
2023/04/20 04:01:05;;;;;;;1.00;0.90;;;6.50;99.90;;;;;;4953477;28;20241;-63
2023/04/20 04:03:34;;;;;;;0.85;0.80;;;6.40;99.90;;;;;;4953769;28;20680;-63
2023/04/20 04:06:02;;;;;;;1.48;1.38;;;6.30;99.90;;;;;;4953538;28;20619;-63
2023/04/20 04:08:40;;;;;;;1.13;1.02;;;6.20;99.90;;;;;;4953905;28;20248;-62
2023/04/20 04:11:08;;;;;;;0.80;0.80;;;6.20;99.90;;;;;;4950982;28;20260;-62
2023/04/20 04:13:37;;;;;;;2.75;0.93;;;6.20;99.90;;;;;;4957099;28;20769;-62
2023/04/20 04:16:06;;;;;;;2.05;1.27;;;6.20;99.90;;;;;;4953946;28;20226;-62
2023/04/20 04:18:34;;;;;;;0.90;0.70;;;6.10;99.90;;;;;;4952573;28;20689;-61
2023/04/20 04:21:01;;;;;;;1.20;1.02;;;6.10;99.90;;;;;;4952769;28;20297;-62
2023/04/20 04:23:29;;;;;;;0.80;0.77;;;6.00;99.90;;;;;;4955396;28;20300;-62
2023/04/20 04:25:57;;;;;;;1.20;1.05;;;5.90;99.90;;;;;;4956699;28;20227;-62
2023/04/20 04:28:25;;;;;;;1.92;1.20;;;5.90;99.90;;;;;;4953529;28;20252;-62
2023/04/20 04:30:54;;;;;;;1.65;1.33;;;5.90;99.90;;;;;;4954897;28;20328;-62
2023/04/20 04:33:23;;;;;;;1.98;1.35;;;5.80;99.90;;;;;;4952727;28;20218;-62
2023/04/20 04:35:52;;;;;;;1.15;1.00;;;5.90;99.90;;;;;;4950987;28;20210;-63
2023/04/20 04:38:20;;;;;;;0.68;0.68;;;6.00;99.90;;;;;;4952503;28;20205;-64
2023/04/20 04:40:48;;;;;;;2.40;1.20;;;6.10;99.90;;;;;;4949160;28;20249;-63
2023/04/20 04:43:18;;;;;;;0.80;0.80;;;6.10;99.90;;;;;;4951277;28;20237;-63
2023/04/20 04:45:46;;;;;;;1.15;1.05;;;6.10;99.90;;;;;;4956419;28;20213;-63
2023/04/20 04:48:15;;;;;;;1.15;1.00;;;6.10;99.90;;;;;;4959724;28;20224;-63
2023/04/20 04:50:43;;;;;;;1.00;0.70;;;6.00;99.90;;;;;;4957230;28;20306;-62
2023/04/20 04:53:11;;;;;;;1.58;1.05;;;6.00;99.90;;;;;;4949314;28;20639;-62
2023/04/20 04:55:38;;;;;;;0.80;0.80;;;6.00;99.90;;;;;;4956733;28;20218;-62
2023/04/20 04:58:06;;;;;;;0.90;0.70;;;5.90;99.90;;;;;;4956100;28;20212;-62
2023/04/20 05:00:34;;;;;;;0.90;0.75;;;5.80;99.90;;;;;;4964086;28;20201;-63
2023/04/20 05:03:02;;;;;;;1.27;0.77;;;5.70;99.90;;;;;;4954814;28;20229;-62
2023/04/20 05:05:32;;;;;;;0.90;0.90;;;5.70;99.90;;;;;;4952431;28;20267;-62
2023/04/20 05:08:00;;;;;;;1.02;0.90;;;5.70;99.90;;;;;;4952111;28;20305;-62
2023/04/20 05:10:28;;;;;;;1.17;1.00;;;5.70;99.90;;;;;;4952975;28;20209;-62
2023/04/20 05:12:57;;;;;;;1.05;0.98;;;5.70;99.90;;;;;;4948863;28;20300;-63
2023/04/20 05:15:29;;;;;;;1.42;1.10;;;5.70;99.90;;;;;;4948923;28;20234;-62
2023/04/20 05:17:57;;;;;;;2.10;1.10;;;5.70;99.90;;;;;;4953841;28;20234;-63
2023/04/20 05:20:25;;;;;;;1.23;1.13;;;5.60;99.90;;;;;;4952723;28;20205;-63
2023/04/20 05:22:54;;;;;;;0.73;0.70;;;5.70;99.90;;;;;;4953529;28;20218;-62
2023/04/20 05:25:22;;;;;;;0.70;0.70;;;5.70;99.90;;;;;;4949541;28;20213;-62
2023/04/20 05:27:50;;;;;;;1.20;1.10;;;5.70;99.90;;;;;;4953108;28;20259;-62
2023/04/20 05:30:18;;;;;;;1.00;0.90;;;5.70;99.90;;;;;;4951793;28;20292;-62
2023/04/20 05:32:49;;;;;;;1.10;1.00;;;5.70;99.90;;;;;;4949564;28;20233;-62
2023/04/20 05:35:20;;;;;;;1.23;1.13;;;5.60;99.90;;;;;;4952813;28;20581;-63
2023/04/20 05:37:48;;;;;;;1.42;1.00;;;5.70;99.90;;;;;;4949028;28;20718;-62
2023/04/20 05:40:17;;;;;;;1.42;1.13;;;5.70;99.90;;;;;;4952811;28;20215;-63
2023/04/20 05:42:45;;;;;;;1.50;1.40;;;5.70;99.90;;;;;;4987590;23;20244;-72
2023/04/20 05:45:13;;;;;;;0.93;0.85;;;5.70;99.90;;;;;;4970885;28;20267;-74
2023/04/20 05:47:41;;;;;;;1.63;1.20;;;5.70;99.90;;;;;;4971220;28;20239;-74
2023/04/20 05:50:10;;;;;;;1.20;1.10;;;5.90;99.90;;;;;;4973879;28;20213;-75
2023/04/20 05:52:37;;;;;;;0.88;0.85;;;6.00;99.90;;;;;;4974671;28;20256;-74
2023/04/20 05:55:06;;;;;;;1.20;1.10;;;6.00;99.90;;;;;;4979722;28;20202;-75
2023/04/20 05:57:41;;;;;;;1.05;0.95;;;6.00;99.90;;;;;;4975641;28;20232;-74
2023/04/20 06:00:11;;;;;;;1.10;1.00;;;5.90;99.90;;;;;;4972658;28;20208;-73
2023/04/20 06:02:39;;;;;;;2.10;1.20;;;5.90;99.90;;;;;;4975109;28;20311;-74
2023/04/20 06:05:09;;;;;;;1.58;1.20;;;5.90;99.90;;;;;;4976558;28;20220;-74
2023/04/20 06:07:37;;;;;;;0.80;0.80;;;5.90;99.90;;;;;;4976168;28;20292;-74
2023/04/20 06:10:07;;;;;;;0.75;0.75;;;6.00;99.90;;;;;;4976990;28;20809;-74
2023/04/20 06:12:36;;;;;;;1.65;1.00;;;5.90;99.90;;;;;;4974190;28;20235;-74
2023/04/20 06:15:05;;;;;;;1.10;1.02;;;5.90;99.90;;;;;;4970229;28;20209;-74
2023/04/20 06:17:36;;;;;;;1.15;1.05;;;5.90;99.90;;;;;;4974467;28;20260;-74
2023/04/20 06:20:05;;;;;;;1.83;1.23;;;5.80;99.90;;;;;;4976118;28;20211;-75
2023/04/20 06:22:34;;;;;;;1.05;0.95;;;5.80;99.90;;;;;;4976648;28;20229;-75
2023/04/20 06:25:02;;;;;;;1.30;1.20;;;5.70;99.90;;;;;;4974432;28;20630;-72
2023/04/20 06:27:29;;;;;;;1.65;1.27;;;5.80;99.90;;;;;;4974526;28;20292;-73
2023/04/20 06:29:59;;;;;;;1.63;1.50;;;5.80;99.90;;;;;;4972498;28;20225;-72
2023/04/20 06:32:27;;;;;;;1.10;1.00;;;5.80;99.90;;;;;;4974848;28;20574;-74
2023/04/20 06:34:55;;;;;;;1.20;1.10;;;5.80;99.90;;;;;;4974510;28;20572;-72
2023/04/20 06:37:22;;;;;;;1.70;1.50;;;5.90;99.90;;;;;;4974519;28;20241;-73
2023/04/20 06:39:53;;;;;;;2.28;1.45;;;5.90;99.90;;;;;;4974416;28;20205;-72
2023/04/20 06:42:21;;;;;;;0.85;0.85;;;5.90;99.90;;;;;;4973107;28;20300;-72
2023/04/20 06:44:49;;;;;;;2.42;1.50;;;5.90;99.90;;;;;;4965127;28;20652;-74
2023/04/20 06:47:18;;;;;;;1.63;1.52;;;6.00;99.90;;;;;;4969890;28;20296;-74
2023/04/20 06:49:49;;;;;;;1.17;0.80;;;6.00;99.90;;;;;;4974913;28;20229;-74
2023/04/20 06:52:16;;;;;;;1.40;1.30;;;6.10;99.90;;;;;;4966570;28;20233;-74
2023/04/20 06:54:44;;;;;;;1.30;1.20;;;6.10;99.90;;;;;;4974503;28;20225;-74
2023/04/20 06:57:12;;;;;;;1.35;1.25;;;6.10;99.90;;;;;;4972800;28;20295;-72
2023/04/20 06:59:40;;;;;;;1.00;0.80;;;6.20;99.90;;;;;;4969180;28;20260;-73
2023/04/20 07:02:08;;;;;;;1.17;1.10;;;6.50;99.90;;;;;;4974085;28;20678;-73
2023/04/20 07:04:37;;;;;;;1.13;0.70;;;6.40;99.90;;;;;;4973959;28;20210;-74
2023/04/20 07:07:05;;;;;;;1.30;1.15;;;6.50;99.90;;;;;;4974029;28;20216;-74
2023/04/20 07:09:33;;;;;;;2.30;1.70;;;6.60;99.90;;;;;;4956743;28;20218;-73
2023/04/20 07:12:01;;;;;;;1.30;1.15;;;6.60;99.90;;;;;;4973615;28;20243;-74
2023/04/20 07:14:29;;;;;;;1.50;1.40;;;6.60;99.90;;;;;;4967630;28;20630;-73
2023/04/20 07:16:57;;;;;;;1.25;1.15;;;6.60;99.90;;;;;;4973589;28;20217;-74
2023/04/20 07:19:25;;;;;;;1.15;1.05;;;6.70;99.90;;;;;;4973884;28;20293;-73
2023/04/20 07:21:54;;;;;;;1.52;1.30;;;6.60;99.90;;;;;;4973791;28;20234;-72
2023/04/20 07:24:22;;;;;;;0.88;0.85;;;6.50;99.90;;;;;;4974028;28;20300;-74
2023/04/20 07:26:50;;;;;;;1.73;1.20;;;6.50;99.90;;;;;;4974042;28;20843;-73
2023/04/20 07:29:18;;;;;;;0.80;0.80;;;6.40;99.90;;;;;;4965919;28;20225;-74
2023/04/20 07:31:46;;;;;;;1.30;1.20;;;6.40;99.90;;;;;;4973769;28;20237;-73
2023/04/20 07:34:14;;;;;;;1.08;0.98;;;6.60;99.90;;;;;;4966392;28;20206;-73
2023/04/20 07:36:42;;;;;;;1.98;1.30;;;6.60;99.90;;;;;;4973539;28;20268;-74
2023/04/20 07:39:12;;;;;;;1.50;0.85;;;6.60;99.90;;;;;;4973586;28;20292;-74
2023/04/20 07:41:40;;;;;;;1.40;1.20;;;6.70;99.90;;;;;;4973376;28;20682;-73
2023/04/20 07:44:07;;;;;;;1.75;1.35;;;6.80;99.90;;;;;;4973312;28;20247;-74
2023/04/20 07:46:35;;;;;;;1.17;1.08;;;6.80;99.90;;;;;;4973554;28;20345;-74
2023/04/20 07:49:03;;;;;;;1.10;1.00;;;6.80;99.90;;;;;;4969467;28;20844;-74
2023/04/20 07:51:33;;;;;;;1.58;1.48;;;6.90;99.90;;;;;;4973559;28;20289;-74
2023/04/20 07:54:00;;;;;;;1.77;1.65;;;6.90;99.90;;;;;;4973583;28;20213;-74
2023/04/20 07:56:30;;;;;;;1.27;1.05;;;6.90;99.90;;;;;;4972927;28;20734;-73
2023/04/20 07:58:58;;;;;;;1.10;1.00;;;6.90;99.90;;;;;;4973113;28;20924;-74
2023/04/20 08:01:26;;;;;;;1.38;1.20;;;6.90;99.90;;;;;;4973222;28;20596;-75
2023/04/20 08:03:54;;;;;;;1.85;1.02;;;7.00;99.90;;;;;;4973118;28;20290;-73
2023/04/20 08:06:23;;;;;;;1.33;1.23;;;7.10;99.90;;;;;;4972807;28;20579;-74
2023/04/20 08:08:50;;;;;;;1.55;1.13;;;7.20;99.90;;;;;;4972207;28;20239;-74
2023/04/20 08:11:19;;;;;;;1.45;1.30;;;7.20;99.90;;;;;;4971822;28;20206;-74
2023/04/20 08:13:48;;;;;;;0.95;0.90;;;7.20;99.90;;;;;;4973166;28;20579;-74
2023/04/20 08:16:16;;;;;;;1.20;1.00;;;7.30;99.90;;;;;;4972714;28;20209;-74
2023/04/20 08:18:44;;;;;;;1.00;0.82;;;7.60;99.90;;;;;;4972924;28;20214;-74
2023/04/20 08:21:11;;;;;;;1.45;1.10;;;7.70;99.90;;;;;;4972734;28;20667;-74
2023/04/20 08:23:39;;;;;;;1.20;1.10;;;7.90;99.90;;;;;;4972198;28;20233;-74
2023/04/20 08:26:07;;;;;;;0.88;0.88;;;8.10;99.90;;;;;;4972738;28;20285;-74
2023/04/20 08:28:35;;;;;;;1.15;0.98;;;8.30;99.90;;;;;;4972784;28;20565;-74
2023/04/20 08:31:04;;;;;;;0.85;0.85;;;8.40;99.90;;;;;;4972684;28;20661;-74
2023/04/20 08:33:32;;;;;;;0.75;0.70;;;8.50;99.90;;;;;;4972774;28;20242;-74
2023/04/20 08:36:00;;;;;;;1.80;1.25;;;8.40;99.90;;;;;;4972397;28;20218;-74
2023/04/20 08:38:28;;;;;;;5.78;1.85;;;8.50;99.90;;;;;;4972396;28;20646;-74
2023/04/20 08:41:01;;;;;;;1.55;1.00;;;8.40;99.90;;;;;;4967551;28;20198;-74
2023/04/20 08:43:29;;;;;;;1.52;1.10;;;8.50;99.90;;;;;;4967128;28;20254;-72
2023/04/20 08:45:58;;;;;;;1.13;1.02;;;8.60;99.90;;;;;;4969105;28;20297;-73
2023/04/20 08:48:33;;;;;;;1.23;1.13;;;8.60;99.90;;;;;;4968040;28;20203;-74
2023/04/20 08:51:02;;;;;;;1.27;1.17;;;8.70;99.90;;;;;;4969630;28;20801;-75
2023/04/20 08:53:31;;;;;;;0.90;0.80;;;8.80;99.90;;;;;;4972352;28;20217;-75
2023/04/20 08:55:59;;;;;;;1.10;0.90;;;8.80;99.90;;;;;;4972329;28;20618;-74
2023/04/20 08:58:31;;;;;;;1.25;1.02;;;8.80;99.90;;;;;;4972173;28;20214;-76
2023/04/20 09:01:00;;;;;;;0.70;0.70;;;8.80;99.90;;;;;;4972205;28;20565;-74
2023/04/20 09:03:36;;;;;;;1.00;0.77;;;8.70;99.90;;;;;;4964200;28;20276;-75
2023/04/20 09:06:06;;;;;;;1.00;0.75;;;8.70;99.90;;;;;;4973498;28;20217;-75
2023/04/20 09:08:39;;;;;;;1.42;1.33;;;8.70;99.90;;;;;;4973092;28;20268;-74
2023/04/20 09:11:20;;;;;;;1.10;1.02;;;8.70;99.90;;;;;;4972761;28;20722;-75
2023/04/20 09:13:57;;;;;;;0.60;0.60;;;8.70;99.90;;;;;;4973160;28;20313;-74
2023/04/20 09:16:25;;;;;;;1.23;1.13;;;8.80;99.90;;;;;;4964506;28;20699;-75
2023/04/20 09:18:56;;;;;;;1.35;1.25;;;8.90;99.90;;;;;;4971580;28;20222;-75
2023/04/20 09:21:26;;;;;;;1.00;0.90;;;9.10;99.90;;;;;;4964369;28;20806;-75
2023/04/20 09:23:59;;;;;;;1.13;0.90;;;9.20;99.90;;;;;;4977106;28;20248;-75
2023/04/20 09:26:27;;;;;;;0.88;0.70;;;9.40;99.90;;;;;;4971134;28;20221;-75
2023/04/20 09:28:55;;;;;;;0.80;0.73;;;9.60;99.90;;;;;;4978477;28;20293;-76
2023/04/20 09:31:24;;;;;;;0.68;0.68;;;9.80;99.90;;;;;;4978164;28;20312;-73
2023/04/20 09:34:00;;;;;;;0.73;0.73;;;9.80;99.90;;;;;;4978801;28;20248;-74
2023/04/20 09:36:37;;;;;;;0.70;0.60;;;9.90;99.90;;;;;;4970844;28;20200;-74
2023/04/20 09:39:07;;;;;;;0.80;0.70;;;10.00;99.90;;;;;;4971294;28;20237;-75
2023/04/20 09:41:36;;;;;;;1.13;0.80;;;10.00;99.90;;;;;;4978242;28;20238;-75
2023/04/20 09:44:05;;;;;;;1.02;0.80;;;10.20;99.90;;;;;;4978267;28;20248;-75
2023/04/20 09:46:34;;;;;;;0.70;0.60;;;10.30;99.90;;;;;;4978226;28;20208;-76
2023/04/20 09:49:06;;;;;;;0.80;0.60;;;10.40;99.90;;;;;;4978028;28;20687;-75
2023/04/20 09:51:35;;;;;;;0.70;0.70;;;10.40;99.90;;;;;;4979121;28;20273;-75
2023/04/20 09:54:05;;;;;;;0.90;0.75;;;10.50;99.90;;;;;;4979647;28;20226;-74
2023/04/20 09:56:34;;;;;;;1.48;1.38;;;10.70;99.90;;;;;;4978237;28;20225;-76
2023/04/20 09:59:03;;;;;;;1.00;0.90;;;10.90;99.90;;;;;;4977087;28;20211;-75
2023/04/20 10:01:33;;;;;;;1.15;1.00;;;11.00;99.90;;;;;;4977868;28;20241;-75
2023/04/20 10:04:09;;;;;;;1.10;1.00;;;11.00;99.90;;;;;;4978196;28;20221;-75
2023/04/20 10:06:38;;;;;;;0.90;0.88;;;11.20;99.90;;;;;;4977511;28;20289;-76
2023/04/20 10:09:08;;;;;;;0.88;0.88;;;11.90;99.90;;;;;;4974248;28;20257;-75
2023/04/20 10:11:39;;;;;;;0.65;0.60;;;12.50;99.90;;;;;;4978141;28;20254;-75
2023/04/20 10:14:21;;;;;;;0.93;0.93;;;13.00;99.90;;;;;;4978205;28;20597;-75
2023/04/20 10:16:59;;;;;;;0.60;0.50;;;13.30;99.90;;;;;;4978107;28;20582;-75
2023/04/20 10:19:39;;;;;;;0.70;0.50;;;13.50;99.90;;;;;;4977811;28;20659;-74
2023/04/20 10:22:08;;;;;;;0.93;0.93;;;13.50;99.90;;;;;;4977297;28;20309;-76
2023/04/20 10:24:37;;;;;;;0.50;0.40;;;13.80;99.90;;;;;;4978213;28;20575;-75
2023/04/20 10:27:16;;;;;;;0.80;0.70;;;14.00;99.90;;;;;;4977845;28;20261;-76
2023/04/20 10:29:44;;;;;;;0.60;0.60;;;14.20;99.90;;;;;;4977775;28;20238;-74
2023/04/20 10:32:21;;;;;;;0.60;0.50;;;14.40;99.90;;;;;;4977671;28;20695;-74
2023/04/20 10:35:01;;;;;;;0.50;0.40;;;14.30;99.90;;;;;;4975622;28;20218;-75
2023/04/20 10:37:29;;;;;;;0.63;0.50;;;14.50;99.90;;;;;;4966875;28;20209;-75
2023/04/20 10:39:57;;;;;;;0.85;0.50;;;14.50;99.90;;;;;;4975231;28;20214;-75
2023/04/20 10:42:26;;;;;;;0.52;0.40;;;14.50;99.90;;;;;;4973828;28;20734;-75
2023/04/20 10:44:54;;;;;;;1.08;1.00;;;14.30;99.90;;;;;;4976231;28;20216;-76
2023/04/20 10:47:27;;;;;;;0.73;0.73;;;14.40;99.90;;;;;;4974159;28;20289;-76
2023/04/20 10:50:06;;;;;;;0.60;0.55;;;14.40;99.90;;;;;;4974782;28;20210;-75
2023/04/20 10:52:35;;;;;;;0.60;0.50;;;14.10;99.90;;;;;;4974537;28;20313;-76
2023/04/20 10:55:04;;;;;;;0.50;0.40;;;13.30;99.90;;;;;;4974578;28;20210;-75
2023/04/20 10:57:33;;;;;;;0.60;0.60;;;13.10;99.90;;;;;;4975528;28;20213;-75
2023/04/20 11:00:15;;;;;;;0.80;0.80;;;13.40;99.90;;;;;;4974469;28;20218;-72
2023/04/20 11:02:47;;;;;;;0.75;0.73;;;13.30;99.90;;;;;;4968518;28;20222;-73
2023/04/20 11:05:18;;;;;;;0.60;0.40;;;13.10;99.90;;;;;;4974268;28;20265;-73
2023/04/20 11:07:50;;;;;;;1.05;0.60;;;12.70;99.90;;;;;;4974038;28;20245;-73
2023/04/20 11:10:18;;;;;;;0.80;0.80;;;12.40;99.90;;;;;;4974195;28;20298;-72
2023/04/20 11:12:46;;;;;;;1.40;1.30;;;12.20;99.90;;;;;;4975660;28;20237;-73
2023/04/20 11:15:15;;;;;;;0.70;0.60;;;12.40;99.90;;;;;;4978299;28;20202;-74
2023/04/20 11:17:43;;;;;;;1.35;0.43;;;13.00;99.90;;;;;;4973925;28;20261;-73
2023/04/20 11:20:15;;;;;;;0.60;0.50;;;13.40;99.90;;;;;;4974072;28;20210;-73
2023/04/20 11:22:56;;;;;;;0.60;0.50;;;13.30;99.90;;;;;;4974334;28;20226;-74
2023/04/20 11:25:23;;;;;;;0.60;0.50;;;12.80;99.90;;;;;;4974460;28;20229;-74
2023/04/20 11:27:51;;;;;;;0.60;0.50;;;12.30;99.90;;;;;;4974254;28;20244;-73
2023/04/20 11:30:19;;;;;;;0.68;0.68;;;12.20;99.90;;;;;;4974034;28;20297;-74
2023/04/20 11:32:54;;;;;;;1.27;1.17;;;12.20;99.90;;;;;;4974272;28;20289;-73
2023/04/20 11:35:22;;;;;;;0.60;0.50;;;11.80;99.90;;;;;;4974503;28;20292;-74
2023/04/20 11:37:52;;;;;;;2.38;2.05;;;11.60;99.90;;;;;;4974054;28;20250;-73
2023/04/20 11:40:20;;;;;;;0.60;0.50;;;11.50;99.90;;;;;;4974446;28;20209;-74
2023/04/20 11:42:48;;;;;;;1.30;1.30;;;11.30;99.90;;;;;;4988718;23;20289;-64
2023/04/20 11:45:16;;;;;;;1.17;0.93;;;11.30;99.90;;;;;;4973027;28;20211;-63
2023/04/20 11:47:44;;;;;;;0.60;0.47;;;11.30;99.90;;;;;;4973015;28;20253;-64
2023/04/20 11:50:13;;;;;;;0.70;0.60;;;11.30;99.90;;;;;;4973213;28;20210;-64
2023/04/20 11:52:41;;;;;;;0.90;0.70;;;11.20;99.90;;;;;;4973232;28;20257;-62
2023/04/20 11:55:10;;;;;;;0.80;0.80;;;11.90;99.90;;;;;;4973142;28;20679;-64
2023/04/20 11:57:38;;;;;;;0.70;0.70;;;12.50;99.90;;;;;;4968589;28;20254;-64
2023/04/20 12:00:07;;;;;;;0.60;0.50;;;12.90;99.90;;;;;;4955120;28;20199;-64
2023/04/20 12:02:35;;;;;;;0.60;0.40;;;13.00;99.90;;;;;;4960600;28;20570;-62
2023/04/20 12:05:04;;;;;;;0.60;0.40;;;13.00;99.90;;;;;;4969475;28;20225;-62
2023/04/20 12:07:32;;;;;;;0.85;0.82;;;12.90;99.90;;;;;;4949465;28;20231;-62
2023/04/20 12:10:00;;;;;;;0.60;0.60;;;12.70;99.90;;;;;;4953750;28;20294;-62
2023/04/20 12:12:29;;;;;;;1.63;0.93;;;12.50;99.90;;;;;;4964387;28;20234;-62
2023/04/20 12:14:57;;;;;;;0.70;0.65;;;12.50;99.90;;;;;;4965776;28;20220;-62
2023/04/20 12:17:25;;;;;;;0.60;0.60;;;13.00;99.90;;;;;;4961808;28;20944;-62
2023/04/20 12:19:53;;;;;;;1.30;0.52;;;13.10;99.90;;;;;;4967651;28;20203;-62
2023/04/20 12:22:21;;;;;;;0.85;0.85;;;13.20;99.90;;;;;;4972609;28;20226;-63
2023/04/20 12:24:49;;;;;;;0.60;0.40;;;13.40;99.90;;;;;;4972854;28;20242;-63
2023/04/20 12:27:17;;;;;;;4.80;1.50;;;13.50;99.90;;;;;;4972331;28;20285;-63
2023/04/20 12:29:46;;;;;;;1.23;0.68;;;13.70;99.90;;;;;;4972503;28;20207;-62
2023/04/20 12:32:14;;;;;;;0.73;0.73;;;14.00;99.90;;;;;;4970412;28;20713;-62
2023/04/20 12:34:42;;;;;;;0.60;0.50;;;14.10;99.90;;;;;;4966430;28;20234;-62
2023/04/20 12:37:09;;;;;;;0.50;0.40;;;13.80;99.90;;;;;;4967795;28;20235;-63
2023/04/20 12:39:37;;;;;;;0.80;0.60;;;14.00;99.90;;;;;;4958140;28;20267;-62
2023/04/20 12:42:06;;;;;;;0.52;0.40;;;14.50;99.90;;;;;;4963482;28;20266;-62
2023/04/20 12:44:34;;;;;;;0.60;0.47;;;14.90;99.90;;;;;;4972406;28;20285;-62
2023/04/20 12:47:03;;;;;;;0.88;0.50;;;15.20;99.90;;;;;;4971831;28;20249;-63
2023/04/20 12:49:31;;;;;;;0.60;0.50;;;15.00;99.90;;;;;;4970956;28;20203;-62
2023/04/20 12:52:00;;;;;;;1.02;0.70;;;14.90;99.90;;;;;;4972287;28;20277;-63
2023/04/20 12:54:28;;;;;;;0.90;0.90;;;14.60;99.90;;;;;;4972002;28;20310;-62
2023/04/20 12:56:56;;;;;;;0.70;0.63;;;14.40;99.90;;;;;;4972236;28;21031;-62
2023/04/20 12:59:24;;;;;;;0.60;0.40;;;14.10;99.90;;;;;;4971646;28;20293;-62
2023/04/20 13:01:52;;;;;;;0.80;0.60;;;13.70;99.90;;;;;;4972033;28;20314;-63
2023/04/20 13:04:21;;;;;;;1.50;0.80;;;13.30;99.90;;;;;;4969152;28;20208;-62